Time,TemperatureF,DewpointF,PressureIn,WindDirection,WindDirectionDegrees,WindSpeedMPH,WindSpeedGustMPH,Humidity,HourlyPrecipIn,Conditions,Clouds,dailyrainin,SoftwareType,DateUTC
2013-02-19 00:01:00,58.6,50.0,30.09,WNW,293,2.0,5.0,73,0.00,,,0.00,weatherlink.com 1.10,2013-02-19 06:01:00,
2013-02-19 00:16:00,58.6,49.0,30.09,NW,316,3.0,4.0,71,0.00,,,0.00,weatherlink.com 1.10,2013-02-19 06:16:00,
2013-02-19 00:31:00,58.6,48.0,30.09,NW,308,2.0,4.0,69,0.00,,,0.00,weatherlink.com 1.10,2013-02-19 06:31:00,
2013-02-19 00:46:00,58.1,48.0,30.09,NNW,327,1.0,3.0,69,0.00,,,0.00,weatherlink.com 1.10,2013-02-19 06:46:00,
2013-02-19 01:01:00,57.5,47.0,30.09,West,281,1.0,3.0,68,0.00,,,0.00,weatherlink.com 1.10,2013-02-19 07:01:00,
2013-02-19 01:16:00,56.6,46.0,30.11,NW,316,0.0,2.0,68,0.00,,,0.00,weatherlink.com 1.10,2013-02-19 07:16:00,
2013-02-19 01:31:00,55.5,46.0,30.11,NW,312,1.0,1.0,70,0.00,,,0.00,weatherlink.com 1.10,2013-02-19 07:31:00,
2013-02-19 01:46:00,55.3,44.0,30.11,East,88,1.0,7.0,67,0.00,,,0.00,weatherlink.com 1.10,2013-02-19 07:46:00,
2013-02-19 02:01:00,55.4,44.0,30.12,NNE,32,1.0,4.0,66,0.00,,,0.00,weatherlink.com 1.10,2013-02-19 08:01:00,
2013-02-19 02:16:00,55.1,43.0,30.12,North,358,2.0,3.0,65,0.00,,,0.00,weatherlink.com 1.10,2013-02-19 08:16:00,
2013-02-19 02:31:00,54.7,43.0,30.11,NE,56,1.0,3.0,66,0.00,,,0.00,weatherlink.com 1.10,2013-02-19 08:31:00,
2013-02-19 02:46:00,54.4,44.0,30.11,North,5,0.0,5.0,67,0.00,,,0.00,weatherlink.com 1.10,2013-02-19 08:46:00,
2013-02-19 03:01:00,53.8,43.0,30.11,NNW,338,0.0,3.0,68,0.00,,,0.00,weatherlink.com 1.10,2013-02-19 09:01:00,
2013-02-19 03:16:00,53.1,43.0,30.10,NW,304,3.0,4.0,69,0.00,,,0.00,weatherlink.com 1.10,2013-02-19 09:16:00,
2013-02-19 03:31:00,52.5,43.0,30.11,ESE,121,0.0,2.0,70,0.00,,,0.00,weatherlink.com 1.10,2013-02-19 09:31:00,
2013-02-19 03:46:00,51.2,42.0,30.11,NE,56,0.0,2.0,72,0.00,,,0.00,weatherlink.com 1.10,2013-02-19 09:46:00,
2013-02-19 04:01:00,51.0,42.0,30.12,NNE,17,1.0,2.0,72,0.00,,,0.00,weatherlink.com 1.10,2013-02-19 10:01:00,
2013-02-19 04:16:00,50.9,42.0,30.12,ENE,63,0.0,1.0,71,0.00,,,0.00,weatherlink.com 1.10,2013-02-19 10:16:00,
2013-02-19 04:31:00,50.4,42.0,30.13,ENE,59,0.0,1.0,72,0.00,,,0.00,weatherlink.com 1.10,2013-02-19 10:31:00,
2013-02-19 04:46:00,50.5,41.0,30.14,North,11,1.0,1.0,71,0.00,,,0.00,weatherlink.com 1.10,2013-02-19 10:46:00,
2013-02-19 05:01:00,50.4,41.0,30.14,North,5,1.0,3.0,71,0.00,,,0.00,weatherlink.com 1.10,2013-02-19 11:01:00,
2013-02-19 05:16:00,50.1,41.0,30.15,NE,47,0.0,2.0,70,0.00,,,0.00,weatherlink.com 1.10,2013-02-19 11:16:00,
2013-02-19 05:31:00,49.9,41.0,30.16,NNE,31,0.0,3.0,71,0.00,,,0.00,weatherlink.com 1.10,2013-02-19 11:31:00,
2013-02-19 05:47:00,49.5,41.0,30.16,WNW,287,1.0,2.0,72,0.00,,,0.00,weatherlink.com 1.10,2013-02-19 11:47:00,
2013-02-19 06:02:00,48.4,40.0,30.16,North,11,0.0,1.0,74,0.00,,,0.00,weatherlink.com 1.10,2013-02-19 12:02:00,
2013-02-19 06:17:00,47.7,40.0,30.17,North,10,0.0,1.0,76,0.00,,,0.00,weatherlink.com 1.10,2013-02-19 12:17:00,
2013-02-19 06:32:00,47.4,41.0,30.17,North,9,0.0,1.0,77,0.00,,,0.00,weatherlink.com 1.10,2013-02-19 12:32:00,
2013-02-19 06:47:00,46.6,40.0,30.18,North,9,0.0,0.0,78,0.00,,,0.00,weatherlink.com 1.10,2013-02-19 12:47:00,
2013-02-19 07:02:00,46.6,40.0,30.18,NNE,30,0.0,1.0,78,0.00,,,0.00,weatherlink.com 1.10,2013-02-19 13:02:00,
2013-02-19 07:17:00,46.9,40.0,30.19,NNE,30,0.0,1.0,77,0.00,,,0.00,weatherlink.com 1.10,2013-02-19 13:17:00,
2013-02-19 07:32:00,47.7,40.0,30.20,NE,47,0.0,2.0,75,0.00,,,0.00,weatherlink.com 1.10,2013-02-19 13:32:00,
2013-02-19 07:47:00,49.8,41.0,30.21,NNE,13,1.0,2.0,72,0.00,,,0.00,weatherlink.com 1.10,2013-02-19 13:47:00,
2013-02-19 08:02:00,51.4,42.0,30.22,NNE,30,1.0,4.0,69,0.00,,,0.00,weatherlink.com 1.10,2013-02-19 14:02:00,
2013-02-19 08:17:00,52.9,42.0,30.23,East,93,2.0,5.0,66,0.00,,,0.00,weatherlink.com 1.10,2013-02-19 14:17:00,
2013-02-19 08:32:00,53.8,41.0,30.24,NE,37,2.0,10.0,63,0.00,,,0.00,weatherlink.com 1.10,2013-02-19 14:32:00,
2013-02-19 08:49:00,54.4,41.0,30.25,NW,312,2.0,6.0,61,0.00,,,0.00,weatherlink.com 1.10,2013-02-19 14:49:00,
2013-02-19 09:02:00,55.3,41.0,30.24,ENE,77,2.0,8.0,58,0.00,,,0.00,weatherlink.com 1.10,2013-02-19 15:02:00,
2013-02-19 09:18:00,56.1,40.0,30.25,North,356,3.0,9.0,55,0.00,,,0.00,weatherlink.com 1.10,2013-02-19 15:18:00,
2013-02-19 09:32:00,56.8,39.0,30.25,NW,325,3.0,10.0,52,0.00,,,0.00,weatherlink.com 1.10,2013-02-19 15:32:00,
2013-02-19 09:47:00,57.2,39.0,30.24,NNE,27,5.0,11.0,51,0.00,,,0.00,weatherlink.com 1.10,2013-02-19 15:47:00,
2013-02-19 10:02:00,58.1,40.0,30.24,NNW,330,6.0,10.0,51,0.00,,,0.00,weatherlink.com 1.10,2013-02-19 16:02:00,
2013-02-19 10:18:00,59.8,40.0,30.26,NNE,18,4.0,8.0,48,0.00,,,0.00,weatherlink.com 1.10,2013-02-19 16:18:00,
2013-02-19 10:32:00,60.4,40.0,30.25,North,3,2.0,8.0,47,0.00,,,0.00,weatherlink.com 1.10,2013-02-19 16:32:00,
2013-02-19 10:47:00,61.3,39.0,30.25,West,274,2.0,7.0,44,0.00,,,0.00,weatherlink.com 1.10,2013-02-19 16:47:00,
2013-02-19 11:02:00,62.8,42.0,30.24,East,91,1.0,7.0,47,0.00,,,0.00,weatherlink.com 1.10,2013-02-19 17:02:00,
2013-02-19 11:17:00,63.8,39.0,30.23,NNW,342,2.0,6.0,41,0.00,,,0.00,weatherlink.com 1.10,2013-02-19 17:17:00,
2013-02-19 11:33:00,64.0,41.0,30.24,ESE,113,3.0,5.0,44,0.00,,,0.00,weatherlink.com 1.10,2013-02-19 17:33:00,
2013-02-19 11:48:00,65.2,40.0,30.23,East,93,4.0,5.0,40,0.00,,,0.00,weatherlink.com 1.10,2013-02-19 17:48:00,
2013-02-19 12:03:00,65.9,40.0,30.24,North,6,4.0,6.0,39,0.00,,,0.00,weatherlink.com 1.10,2013-02-19 18:03:00,
2013-02-19 12:18:00,66.6,39.0,30.23,ESE,110,6.0,8.0,37,0.00,,,0.00,weatherlink.com 1.10,2013-02-19 18:18:00,
2013-02-19 12:33:00,67.1,41.0,30.23,North,353,4.0,7.0,39,0.00,,,0.00,weatherlink.com 1.10,2013-02-19 18:33:00,
2013-02-19 12:48:00,67.7,41.0,30.22,NW,314,2.0,6.0,38,0.00,,,0.00,weatherlink.com 1.10,2013-02-19 18:48:00,
2013-02-19 13:03:00,68.0,41.0,30.22,NE,39,1.0,6.0,38,0.00,,,0.00,weatherlink.com 1.10,2013-02-19 19:03:00,
2013-02-19 13:18:00,68.9,41.0,30.21,ESE,121,1.0,6.0,36,0.00,,,0.00,weatherlink.com 1.10,2013-02-19 19:18:00,
2013-02-19 13:33:00,69.2,41.0,30.20,SE,124,1.0,5.0,36,0.00,,,0.00,weatherlink.com 1.10,2013-02-19 19:33:00,
2013-02-19 13:48:00,69.5,42.0,30.20,ESE,117,2.0,5.0,37,0.00,,,0.00,weatherlink.com 1.10,2013-02-19 19:48:00,
2013-02-19 14:03:00,69.9,40.0,30.18,ESE,118,1.0,4.0,34,0.00,,,0.00,weatherlink.com 1.10,2013-02-19 20:03:00,
2013-02-19 14:18:00,70.2,40.0,30.17,ENE,70,1.0,6.0,33,0.00,,,0.00,weatherlink.com 1.10,2013-02-19 20:18:00,
2013-02-19 14:33:00,70.1,38.0,30.17,North,360,2.0,9.0,31,0.00,,,0.00,weatherlink.com 1.10,2013-02-19 20:33:00,
2013-02-19 14:48:00,70.1,38.0,30.17,SE,136,1.0,8.0,31,0.00,,,0.00,weatherlink.com 1.10,2013-02-19 20:48:00,
2013-02-19 15:03:00,70.3,40.0,30.16,NE,48,3.0,8.0,33,0.00,,,0.00,weatherlink.com 1.10,2013-02-19 21:03:00,
2013-02-19 15:18:00,70.0,39.0,30.15,East,94,4.0,7.0,32,0.00,,,0.00,weatherlink.com 1.10,2013-02-19 21:18:00,
2013-02-19 15:33:00,70.3,39.0,30.15,East,83,3.0,7.0,32,0.00,,,0.00,weatherlink.com 1.10,2013-02-19 21:33:00,
2013-02-19 15:49:00,69.8,37.0,30.14,NE,48,2.0,10.0,30,0.00,,,0.00,weatherlink.com 1.10,2013-02-19 21:49:00,
2013-02-19 16:03:00,69.4,36.0,30.14,NNW,336,4.0,10.0,29,0.00,,,0.00,weatherlink.com 1.10,2013-02-19 22:03:00,
2013-02-19 16:18:00,69.1,35.0,30.13,WNW,297,3.0,10.0,29,0.00,,,0.00,weatherlink.com 1.10,2013-02-19 22:18:00,
2013-02-19 16:33:00,68.5,38.0,30.13,SE,124,2.0,6.0,33,0.00,,,0.00,weatherlink.com 1.10,2013-02-19 22:33:00,
2013-02-19 16:48:00,67.6,38.0,30.13,ESE,103,3.0,8.0,34,0.00,,,0.00,weatherlink.com 1.10,2013-02-19 22:48:00,
2013-02-19 17:18:00,65.5,36.0,30.13,NE,41,4.0,6.0,34,0.00,,,0.00,weatherlink.com 1.10,2013-02-19 23:18:00,
2013-02-19 17:34:00,64.6,38.0,30.15,ESE,104,0.0,3.0,37,0.00,,,0.00,weatherlink.com 1.10,2013-02-19 23:34:00,
2013-02-19 17:48:00,63.5,39.0,30.14,SSE,155,0.0,3.0,41,0.00,,,0.00,weatherlink.com 1.10,2013-02-19 23:48:00,
2013-02-19 18:18:00,61.3,41.0,30.15,ESE,115,0.0,4.0,48,0.00,,,0.00,weatherlink.com 1.10,2013-02-20 00:18:00,
2013-02-19 18:33:00,59.9,42.0,30.15,East,84,0.0,1.0,51,0.00,,,0.00,weatherlink.com 1.10,2013-02-20 00:33:00,
2013-02-19 18:48:00,59.3,41.0,30.15,SE,134,0.0,2.0,51,0.00,,,0.00,weatherlink.com 1.10,2013-02-20 00:48:00,
2013-02-19 19:03:00,58.7,41.0,30.15,ESE,120,0.0,1.0,53,0.00,,,0.00,weatherlink.com 1.10,2013-02-20 01:03:00,
2013-02-19 19:18:00,57.4,42.0,30.14,ESE,105,0.0,2.0,56,0.00,,,0.00,weatherlink.com 1.10,2013-02-20 01:18:00,
2013-02-19 19:34:00,57.5,40.0,30.14,ESE,122,0.0,2.0,53,0.00,,,0.00,weatherlink.com 1.10,2013-02-20 01:34:00,
2013-02-19 19:49:00,57.0,39.0,30.14,SE,133,1.0,3.0,52,0.00,,,0.00,weatherlink.com 1.10,2013-02-20 01:49:00,
2013-02-19 20:03:00,57.3,41.0,30.15,ESE,109,0.0,4.0,55,0.00,,,0.00,weatherlink.com 1.10,2013-02-20 02:03:00,
2013-02-19 20:18:00,57.0,42.0,30.14,ESE,108,1.0,3.0,57,0.00,,,0.00,weatherlink.com 1.10,2013-02-20 02:18:00,
2013-02-19 20:34:00,56.9,42.0,30.16,ESE,121,1.0,3.0,58,0.00,,,0.00,weatherlink.com 1.10,2013-02-20 02:34:00,
2013-02-19 20:48:00,56.6,42.0,30.15,SE,141,0.0,2.0,59,0.00,,,0.00,weatherlink.com 1.10,2013-02-20 02:48:00,
2013-02-19 21:04:00,56.2,43.0,30.16,ESE,111,1.0,2.0,61,0.00,,,0.00,weatherlink.com 1.10,2013-02-20 03:04:00,
2013-02-19 21:18:00,55.8,44.0,30.16,ESE,117,1.0,2.0,64,0.00,,,0.00,weatherlink.com 1.10,2013-02-20 03:18:00,
2013-02-19 21:33:00,55.9,45.0,30.15,ESE,103,0.0,2.0,66,0.00,,,0.00,weatherlink.com 1.10,2013-02-20 03:33:00,
2013-02-19 21:48:00,56.4,45.0,30.14,ESE,121,2.0,3.0,67,0.00,,,0.00,weatherlink.com 1.10,2013-02-20 03:48:00,
2013-02-19 22:03:00,56.8,45.0,30.14,SE,126,2.0,6.0,66,0.00,,,0.00,weatherlink.com 1.10,2013-02-20 04:03:00,
2013-02-19 22:19:00,57.1,45.0,30.14,SE,129,1.0,5.0,65,0.00,,,0.00,weatherlink.com 1.10,2013-02-20 04:19:00,
2013-02-19 22:33:00,57.4,45.0,30.14,East,101,3.0,5.0,63,0.00,,,0.00,weatherlink.com 1.10,2013-02-20 04:33:00,
2013-02-19 22:48:00,57.3,44.0,30.14,East,94,2.0,5.0,62,0.00,,,0.00,weatherlink.com 1.10,2013-02-20 04:48:00,
2013-02-19 23:03:00,57.4,43.0,30.14,ESE,111,2.0,6.0,60,0.00,,,0.00,weatherlink.com 1.10,2013-02-20 05:03:00,
2013-02-19 23:18:00,57.2,42.0,30.14,ESE,110,2.0,7.0,58,0.00,,,0.00,weatherlink.com 1.10,2013-02-20 05:18:00,
2013-02-19 23:34:00,56.8,41.0,30.13,ESE,107,2.0,5.0,57,0.00,,,0.00,weatherlink.com 1.10,2013-02-20 05:34:00,
2013-02-19 23:49:00,56.8,40.0,30.12,NE,41,2.0,8.0,54,0.00,,,0.00,weatherlink.com 1.10,2013-02-20 05:49:00,